Artesia, New Mexico
Current Conditions -  °F | °C
As of 11:51 AM on Friday 31 Oct 2014 (Local Time) from KROW Reporting Station
Clear Clear  
Wind Chill: 64°   Ceiling: Unl
Heat Index: 64°   Visibility: 10mi
Dew Point: 33°   Wind: 15mph
Humidity: 31%   Direction: 170°S
Pressure: 30.42"   Gusts: NA
Location:  32.84°N, 104.39°W
Report Text: KROW 311751Z 17013KT 10SM CLR 18/01 A3042 RMK AO2 SLP265 T01780006 10178 20050 58004
Loading
Personal Weather Stations






























Interactive Weather Map New forecast layout! Learn more

10-Day Weather Forecast

Advertisements
Track Severe Weather on mobile